ADDS METAR Data INFO
IDs: Format: Raw Decoded Include TAF

Data at: 0315 UTC 20 Jul 2018

KAHN 200251Z AUTO 07005KT 10SM BKN025 BKN036 BKN049 24/22 A3001 RMK AO2 LTG DSNT E SLP154 T02440222 51010
KAHN 200151Z AUTO 07004KT 10SM FEW032 24/22 A3001 RMK AO2 SLP155 T02440222
KAHN 200051Z AUTO 00000KT 10SM SCT029 BKN035 25/22 A3001 RMK AO2 SLP153 T02500222
KAHN 192351Z AUTO 07005KT 10SM CLR 25/21 A2998 RMK AO2 RAB2254E08 SLP145 P0000 60000 T02500206 10333 20250 50010
KAHN 192251Z AUTO 09006KT 10SM FEW070 BKN085 BKN120 26/20 A2998 RMK AO2 SLP145 T02610200
KAHN 192151Z AUTO VRB06KT 10SM FEW046 BKN060 27/22 A2997 RMK AO2 LTG DSNT SW AND W SLP141 T02720222
KAHN 192051Z AUTO 06010G17KT 10SM SCT030 SCT036 BKN046 31/23 A2995 RMK AO2 SLP134 T03060233 56011
KAHN 191951Z 06007KT 10SM FEW028 SCT037 SCT055 31/24 A2996 RMK AO2 SLP136 T03110239
KAHN 191851Z 07006KT 10SM SCT032 SCT060 BKN085 32/23 A2997 RMK AO2 SLP139 T03170233
KAHN 191751Z 08009KT 10SM SCT025 SCT030 BKN095 32/24 A2998 RMK AO2 SLP144 T03220239 10322 20233 58010
KAHN 191651Z 06008KT 10SM SCT024 BKN035 30/24 A3001 RMK AO2 SLP154 T03000239
KAHN 191627Z 07005KT 10SM FEW021 BKN035 30/24 A3002 RMK AO2 T03000239
KAHN 191551Z 07009KT 10SM BKN021 29/24 A3002 RMK AO2 SLP157 T02940239
KAHN 191451Z 08005KT 9SM OVC015 27/24 A3002 RMK AO2 SLP156 T02720239 50007
KAHN 191414Z 08005KT 9SM OVC010 26/24 A3002 RMK AO2 CIG 007V012 T02610239
KAHN 191351Z 09005KT 8SM OVC007 25/23 A3002 RMK AO2 CIG 006V011 SLP158 T02500233
KAHN 191319Z 09007KT 7SM OVC006 25/23 A3001 RMK AO2 T02500233
KAHN 191258Z 07006KT 5SM BR OVC004 24/23 A3001 RMK AO2 T02440233
KAHN 191251Z 07006KT 5SM BR OVC003 24/23 A3001 RMK AO2 SLP154 T02390233
KAHN 191206Z 05005KT 3SM BR OVC003 23/23 A3000 RMK AO2 T02330228
KAHN 191158Z 05004KT 2 1/2SM BR OVC003 23/23 A3000 RMK AO2 T02330233
KAHN 191151Z 06005KT 2SM BR OVC004 23/23 A2999 RMK AO2 SLP149 T02330228 10239 20222 53015
KAHN 191144Z AUTO 06005KT 2 1/2SM BR OVC004 23/23 A2999 RMK AO2 T02330228
KAHN 191105Z AUTO 07005KT 7SM BKN006 23/22 A2998 RMK AO2 T02280222
KAHN 191051Z AUTO 07006KT 7SM FEW006 22/22 A2998 RMK AO2 SLP143 T02220217
KAHN 190951Z AUTO 04004KT 9SM CLR 23/22 A2996 RMK AO2 SLP134 T02280217
KAHN 190851Z AUTO 05003KT 8SM CLR 23/22 A2995 RMK AO2 SLP134 T02280222 55000
KAHN 190751Z AUTO 07005KT 9SM CLR 23/22 A2994 RMK AO2 SLP130 T02280222
KAHN 190651Z AUTO 06003KT 9SM CLR 23/23 A2994 RMK AO2 SLP131 T02330228
KAHN 190551Z AUTO 00000KT 10SM CLR 23/23 A2995 RMK AO2 SLP133 T02330228 10289 20233 58005
KAHN 190451Z AUTO 00000KT 10SM CLR 24/23 A2996 RMK AO2 SLP138 T02390228 403330222
KAHN 190351Z AUTO 00000KT 10SM CLR 24/23 A2996 RMK AO2 SLP138 T02390228
KAHN 190251Z AUTO 00000KT 10SM CLR 24/23 A2997 RMK AO2 SLP139 T02440228 53014
KAHN 190151Z AUTO 12003KT 10SM CLR 26/23 A2994 RMK AO2 SLP131 T02560233
KAHN 190051Z AUTO 00000KT 10SM CLR 26/24 A2993 RMK AO2 SLP126 T02610239
KAHN 182351Z AUTO 00000KT 10SM CLR 29/23 A2992 RMK AO2 SLP125 T02940233 10333 20294 53000
KAHN 182251Z 10003KT 10SM CLR 30/23 A2991 RMK AO2 SLP121 T03000228
KAHN 182151Z VRB03KT 10SM FEW040 33/23 A2991 RMK AO2 SLP119 T03280228
KAHN 182051Z 00000KT 10SM SCT041 31/23 A2992 RMK AO2 SLP125 T03060228 56016
KAHN 181951Z 10004KT 10SM FEW039 33/22 A2994 RMK AO2 SLP128 T03280222
KAHN 181851Z 08006KT 10SM FEW032 32/23 A2996 RMK AO2 SLP135 T03170228
KAHN 181751Z 12005KT 10SM SCT027 32/23 A2997 RMK AO2 SLP140 T03170228 10322 20233 58009
KAHN 181651Z 05005KT 10SM CLR 30/23 A3000 RMK AO2 SLP148 T03000233
KAHN 181551Z 06006KT 10SM CLR 29/23 A3000 RMK AO2 SLP150 T02940233